createdAt,value
2023-04-10T00:02:18.283Z,8.02
2023-04-10T00:04:46.423Z,6.93
2023-04-10T00:07:14.466Z,8.18
2023-04-10T00:09:42.201Z,6.55
2023-04-10T00:12:11.426Z,6.90
2023-04-10T00:14:39.335Z,7.10
2023-04-10T00:17:07.279Z,7.45
2023-04-10T00:19:35.109Z,9.85
2023-04-10T00:22:03.424Z,9.07
2023-04-10T00:24:31.437Z,6.53
2023-04-10T00:26:59.147Z,7.20
2023-04-10T00:29:27.044Z,7.38
2023-04-10T00:31:54.807Z,6.10
2023-04-10T00:34:22.740Z,5.85
2023-04-10T00:36:51.007Z,5.53
2023-04-10T00:39:19.381Z,7.38
2023-04-10T00:41:47.143Z,9.40
2023-04-10T00:44:14.915Z,7.07
2023-04-10T00:46:43.165Z,8.25
2023-04-10T00:49:12.147Z,8.85
2023-04-10T00:51:40.171Z,9.82
2023-04-10T00:54:10.550Z,6.65
2023-04-10T00:56:38.659Z,8.65
2023-04-10T00:59:07.306Z,6.15
2023-04-10T01:01:35.618Z,5.90
2023-04-10T01:04:04.371Z,4.75
2023-04-10T01:06:44.589Z,5.97
2023-04-10T01:09:34.443Z,5.90
2023-04-10T01:12:17.541Z,8.80
2023-04-10T01:14:51.233Z,5.97
2023-04-10T01:17:28.036Z,4.18
2023-04-10T01:20:08.746Z,6.63
2023-04-10T01:22:51.126Z,7.32
2023-04-10T01:25:38.494Z,6.50
2023-04-10T01:28:19.944Z,5.63
2023-04-10T01:30:49.190Z,7.00
2023-04-10T01:33:19.482Z,7.00
2023-04-10T01:35:52.630Z,6.40
2023-04-10T01:38:24.417Z,5.18
2023-04-10T01:40:54.082Z,5.38
2023-04-10T01:43:31.481Z,4.18
2023-04-10T01:46:02.264Z,3.92
2023-04-10T01:48:30.775Z,4.95
2023-04-10T01:51:00.127Z,5.97
2023-04-10T01:53:29.394Z,3.40
2023-04-10T01:55:57.746Z,5.25
2023-04-10T01:58:25.562Z,6.40
2023-04-10T02:00:56.196Z,4.57
2023-04-10T02:03:24.351Z,7.53
2023-04-10T02:05:52.229Z,4.60
2023-04-10T02:08:36.815Z,6.95
2023-04-10T02:11:12.884Z,7.38
2023-04-10T02:13:41.347Z,6.72
2023-04-10T02:16:12.053Z,5.55
2023-04-10T02:18:42.467Z,6.20
2023-04-10T02:21:10.225Z,4.95
2023-04-10T02:23:38.474Z,6.40
2023-04-10T02:26:08.095Z,5.20
2023-04-10T02:28:40.496Z,3.92
2023-04-10T02:31:08.272Z,5.40
2023-04-10T02:33:36.524Z,4.43
2023-04-10T02:36:05.234Z,3.83
2023-04-10T02:38:33.173Z,4.32
2023-04-10T02:41:01.339Z,4.65
2023-04-10T02:43:29.823Z,4.43
2023-04-10T02:45:57.695Z,4.97
2023-04-10T02:48:27.943Z,6.03
2023-04-10T02:51:01.693Z,5.15
2023-04-10T02:53:29.922Z,4.72
2023-04-10T02:56:01.015Z,5.75
2023-04-10T02:58:31.094Z,5.70
2023-04-10T03:00:59.969Z,5.40
2023-04-10T03:03:42.483Z,4.97
2023-04-10T03:06:11.673Z,4.25
2023-04-10T03:08:41.440Z,5.10
2023-04-10T03:11:09.756Z,4.80
2023-04-10T03:13:38.428Z,6.47
2023-04-10T03:16:06.842Z,4.97
2023-04-10T03:18:35.225Z,5.18
2023-04-10T03:21:03.963Z,4.60
2023-04-10T03:23:31.767Z,6.30
2023-04-10T03:25:59.588Z,5.88
2023-04-10T03:28:29.956Z,7.07
2023-04-10T03:30:57.807Z,4.53
2023-04-10T03:33:25.994Z,6.13
2023-04-10T03:35:53.974Z,5.30
2023-04-10T03:38:21.943Z,4.05
2023-04-10T03:40:50.234Z,6.07
2023-04-10T03:43:20.834Z,5.40
2023-04-10T03:45:49.453Z,5.70
2023-04-10T03:48:19.107Z,7.55
2023-04-10T03:50:48.103Z,6.47
2023-04-10T03:53:17.380Z,5.13
2023-04-10T03:55:46.325Z,6.72
2023-04-10T03:58:15.065Z,8.00
2023-04-10T04:00:42.770Z,5.65
2023-04-10T04:03:42.957Z,5.70
2023-04-10T04:06:46.088Z,7.32
2023-04-10T04:09:36.437Z,5.95
2023-04-10T04:12:25.506Z,6.25
2023-04-10T04:15:03.850Z,4.80
2023-04-10T04:17:55.188Z,6.10
2023-04-10T04:20:52.022Z,5.45
2023-04-10T04:23:31.933Z,8.13
2023-04-10T04:26:09.927Z,9.48
2023-04-10T04:29:00.745Z,6.45
2023-04-10T04:31:42.447Z,7.28
2023-04-10T04:34:36.270Z,8.77
2023-04-10T04:37:26.859Z,5.78
2023-04-10T04:40:13.462Z,6.80
2023-04-10T04:43:09.898Z,5.82
2023-04-10T04:45:58.192Z,8.45
2023-04-10T04:48:49.403Z,7.20
2023-04-10T04:51:45.849Z,6.80
2023-04-10T04:54:27.317Z,7.22
2023-04-10T04:57:21.690Z,7.07
2023-04-10T05:00:10.004Z,7.00
2023-04-10T05:02:49.915Z,6.10
2023-04-10T05:08:22.465Z,6.72
2023-04-10T05:11:07.253Z,9.52
2023-04-10T05:13:53.218Z,6.32
2023-04-10T05:16:50.537Z,7.55
2023-04-10T05:19:41.687Z,7.07
2023-04-10T05:22:19.696Z,7.18
2023-04-10T05:25:13.427Z,7.40
2023-04-10T05:28:07.207Z,9.32
2023-04-10T05:30:53.517Z,5.20
2023-04-10T05:33:39.853Z,7.35
2023-04-10T05:36:33.833Z,6.00
2023-04-10T05:39:24.373Z,8.15
2023-04-10T05:42:10.877Z,7.57
2023-04-10T05:44:48.344Z,5.35
2023-04-10T05:47:42.423Z,6.45
2023-04-10T05:50:30.583Z,6.60
2023-04-10T05:53:21.863Z,8.48
2023-04-10T05:56:10.014Z,7.70
2023-04-10T05:59:03.912Z,7.68
2023-04-10T06:01:50.005Z,5.75
2023-04-10T06:04:17.997Z,9.07
2023-04-10T06:06:47.359Z,8.80
2023-04-10T06:09:15.975Z,7.63
2023-04-10T06:11:45.045Z,8.32
2023-04-10T06:14:13.172Z,8.57
2023-04-10T06:16:45.014Z,6.78
2023-04-10T06:19:12.789Z,7.78
2023-04-10T06:21:40.801Z,7.88
2023-04-10T06:24:09.640Z,6.03
2023-04-10T06:26:38.732Z,6.72
2023-04-10T06:29:06.449Z,8.07
2023-04-10T06:31:35.359Z,7.93
2023-04-10T06:34:03.361Z,7.72
2023-04-10T06:36:31.341Z,7.35
2023-04-10T06:39:03.866Z,9.23
2023-04-10T06:41:31.772Z,7.68
2023-04-10T06:44:08.662Z,6.50
2023-04-10T06:46:36.466Z,7.55
2023-04-10T06:49:04.205Z,7.88
2023-04-10T06:51:32.552Z,10.13
2023-04-10T06:54:00.640Z,9.98
2023-04-10T06:56:28.790Z,9.48
2023-04-10T06:58:57.909Z,7.00
2023-04-10T07:01:26.662Z,8.52
2023-04-10T07:03:54.730Z,10.00
2023-04-10T07:06:22.593Z,9.15
2023-04-10T07:08:51.020Z,9.75
2023-04-10T07:11:18.827Z,8.77
2023-04-10T07:13:46.678Z,6.88
2023-04-10T07:16:14.481Z,5.15
2023-04-10T07:18:42.760Z,6.60
2023-04-10T07:21:13.582Z,7.55
2023-04-10T07:23:41.371Z,7.13
2023-04-10T07:26:09.269Z,5.95
2023-04-10T07:28:38.325Z,6.90
2023-04-10T07:31:08.010Z,7.22
2023-04-10T07:33:36.509Z,9.13
2023-04-10T07:36:06.267Z,9.02
2023-04-10T07:38:34.100Z,12.23
2023-04-10T07:41:01.753Z,10.30
2023-04-10T07:43:29.971Z,13.40
2023-04-10T07:45:58.008Z,12.18
2023-04-10T07:48:25.900Z,10.90
2023-04-10T07:50:53.633Z,12.18
2023-04-10T07:53:21.491Z,10.25
2023-04-10T07:55:50.219Z,12.18
2023-04-10T07:58:17.987Z,15.13
2023-04-10T08:00:46.041Z,21.00
2023-04-10T08:03:15.980Z,14.57
2023-04-10T08:05:44.057Z,12.27
2023-04-10T08:08:12.123Z,8.45
2023-04-10T08:10:39.887Z,12.95
2023-04-10T08:13:07.885Z,15.80
2023-04-10T08:15:35.887Z,15.05
2023-04-10T08:18:03.845Z,16.65
2023-04-10T08:20:37.087Z,13.32
2023-04-10T08:23:19.749Z,13.20
2023-04-10T08:25:48.752Z,12.73
2023-04-10T08:28:16.675Z,12.55
2023-04-10T08:30:44.572Z,10.10
2023-04-10T08:33:12.524Z,12.13
2023-04-10T08:35:40.595Z,17.70
2023-04-10T08:38:14.071Z,23.90
2023-04-10T08:40:42.901Z,17.13
2023-04-10T08:43:10.915Z,15.60
2023-04-10T08:45:41.269Z,16.52
2023-04-10T08:48:11.159Z,17.00
2023-04-10T08:50:43.095Z,16.80
2023-04-10T08:53:14.020Z,16.20
2023-04-10T08:55:47.312Z,14.75
2023-04-10T08:58:16.596Z,13.95
2023-04-10T09:00:44.586Z,19.13
2023-04-10T09:03:14.448Z,14.48
2023-04-10T09:05:42.620Z,15.90
2023-04-10T09:08:15.286Z,17.38
2023-04-10T09:10:43.073Z,17.20
2023-04-10T09:13:10.985Z,16.50
2023-04-10T09:15:59.908Z,11.63
2023-04-10T09:18:57.112Z,10.30
2023-04-10T09:21:24.869Z,13.50
2023-04-10T09:24:01.401Z,11.13
2023-04-10T09:26:31.764Z,12.88
2023-04-10T09:29:07.301Z,12.05
2023-04-10T09:31:39.434Z,10.07
2023-04-10T09:34:23.747Z,11.73
2023-04-10T09:37:00.216Z,7.85
2023-04-10T09:39:38.836Z,9.75
2023-04-10T09:42:10.548Z,10.93
2023-04-10T09:44:40.146Z,8.10
2023-04-10T09:47:14.092Z,11.18
2023-04-10T09:49:49.426Z,10.55
2023-04-10T09:52:22.422Z,10.18
2023-04-10T09:54:50.551Z,11.85
2023-04-10T09:57:20.192Z,9.82
2023-04-10T09:59:54.036Z,9.77
2023-04-10T10:02:24.138Z,10.48
2023-04-10T10:04:53.482Z,8.95
2023-04-10T10:07:22.915Z,12.60
2023-04-10T10:09:52.827Z,10.82
2023-04-10T10:13:06.073Z,12.93
2023-04-10T10:16:27.679Z,9.70
2023-04-10T10:19:09.359Z,8.73
2023-04-10T10:21:38.943Z,9.98
2023-04-10T10:24:10.352Z,9.52
2023-04-10T10:26:40.704Z,11.73
2023-04-10T10:29:13.550Z,7.10
2023-04-10T10:31:42.761Z,11.95
2023-04-10T10:34:11.234Z,6.15
2023-04-10T10:36:40.779Z,9.43
2023-04-10T10:39:36.262Z,6.75
2023-04-10T10:42:24.033Z,7.80
2023-04-10T10:47:42.691Z,7.15
2023-04-10T10:50:10.791Z,8.23
2023-04-10T10:52:50.188Z,8.80
2023-04-10T10:55:24.818Z,10.02
2023-04-10T10:57:54.614Z,8.45
2023-04-10T11:00:26.610Z,11.60
2023-04-10T11:03:10.781Z,9.75
2023-04-10T11:05:56.490Z,7.93
2023-04-10T11:08:33.826Z,7.78
2023-04-10T11:11:03.891Z,10.70
2023-04-10T11:13:36.890Z,8.85
2023-04-10T11:16:07.007Z,13.25
2023-04-10T11:18:55.867Z,9.55
2023-04-10T11:21:32.375Z,11.40
2023-04-10T11:24:00.897Z,9.55
2023-04-10T11:26:38.310Z,7.93
2023-04-10T11:29:27.671Z,6.40
2023-04-10T11:31:58.046Z,4.45
2023-04-10T11:34:31.017Z,4.90
2023-04-10T11:37:02.366Z,6.60
2023-04-10T11:39:31.192Z,7.53
2023-04-10T11:41:59.903Z,9.60
2023-04-10T11:44:31.804Z,13.70
2023-04-10T11:47:00.938Z,15.18
2023-04-10T11:49:35.133Z,13.43
2023-04-10T11:52:05.677Z,10.93
2023-04-10T11:54:33.791Z,9.20
2023-04-10T11:57:10.953Z,8.35
2023-04-10T11:59:39.222Z,8.55
2023-04-10T12:02:16.119Z,7.15
2023-04-10T12:04:44.721Z,10.98
2023-04-10T12:07:12.667Z,16.38
2023-04-10T12:09:41.255Z,20.90
2023-04-10T12:12:09.379Z,28.63
2023-04-10T12:14:42.102Z,21.98
2023-04-10T12:17:11.886Z,25.75
2023-04-10T12:19:40.578Z,29.10
2023-04-10T12:22:12.152Z,16.67
2023-04-10T12:24:49.518Z,15.95
2023-04-10T12:27:21.317Z,8.68
2023-04-10T12:29:51.000Z,8.20
2023-04-10T12:32:22.825Z,8.60
2023-04-10T12:35:01.520Z,20.20
2023-04-10T12:37:49.467Z,16.00
2023-04-10T12:40:17.740Z,16.63
2023-04-10T12:42:45.513Z,19.15
2023-04-10T12:45:14.924Z,15.00
2023-04-10T12:47:54.640Z,15.75
2023-04-10T12:50:24.430Z,19.67
2023-04-10T12:53:04.969Z,16.17
2023-04-10T12:55:33.320Z,10.73
2023-04-10T12:58:28.406Z,12.27
2023-04-10T13:00:56.798Z,16.05
2023-04-10T13:03:25.013Z,19.35
2023-04-10T13:05:53.655Z,20.90
2023-04-10T13:08:23.151Z,15.70
2023-04-10T13:10:51.760Z,10.13
2023-04-10T13:13:20.149Z,9.82
2023-04-10T13:15:48.009Z,13.60
2023-04-10T13:18:17.624Z,14.57
2023-04-10T13:20:45.494Z,8.52
2023-04-10T13:23:13.330Z,9.60
2023-04-10T13:25:42.343Z,6.93
2023-04-10T13:28:11.577Z,10.18
2023-04-10T13:30:41.528Z,10.57
2023-04-10T13:33:10.031Z,7.57
2023-04-10T13:35:40.175Z,9.05
2023-04-10T13:38:09.672Z,14.55
2023-04-10T13:40:37.956Z,16.55
2023-04-10T13:43:06.618Z,10.65
2023-04-10T13:45:35.278Z,9.45
2023-04-10T13:48:04.180Z,6.95
2023-04-10T13:50:32.169Z,13.82
2023-04-10T13:53:00.016Z,7.57
2023-04-10T13:55:27.896Z,4.43
2023-04-10T13:57:55.903Z,4.45
2023-04-10T14:00:23.917Z,6.20
2023-04-10T14:02:52.211Z,6.20
2023-04-10T14:05:20.393Z,4.45
2023-04-10T14:07:48.737Z,7.05
2023-04-10T14:10:16.427Z,6.18
2023-04-10T14:12:44.210Z,5.45
2023-04-10T14:15:12.521Z,5.15
2023-04-10T14:17:40.382Z,5.93
2023-04-10T14:20:11.784Z,3.55
2023-04-10T14:22:39.835Z,7.68
2023-04-10T14:25:13.647Z,4.35
2023-04-10T14:27:43.108Z,5.68
2023-04-10T14:30:11.628Z,4.35
2023-04-10T14:32:39.784Z,6.30
2023-04-10T14:35:08.053Z,5.05
2023-04-10T14:37:36.015Z,4.80
2023-04-10T14:40:05.230Z,4.10
2023-04-10T14:42:33.138Z,4.13
2023-04-10T14:45:00.941Z,4.25
2023-04-10T14:47:28.914Z,5.28
2023-04-10T14:49:56.797Z,5.03
2023-04-10T14:52:24.753Z,4.55
2023-04-10T14:54:52.544Z,4.65
2023-04-10T14:57:20.474Z,4.90
2023-04-10T14:59:48.444Z,5.43
2023-04-10T15:02:16.231Z,5.53
2023-04-10T15:04:44.276Z,6.15
2023-04-10T15:07:15.728Z,5.90
2023-04-10T15:09:44.768Z,8.00
2023-04-10T15:12:12.630Z,6.35
2023-04-10T15:14:40.365Z,5.75
2023-04-10T15:17:08.569Z,5.85
2023-04-10T15:19:36.482Z,7.07
2023-04-10T15:22:04.371Z,5.15
2023-04-10T15:24:39.901Z,4.60
2023-04-10T15:27:15.160Z,5.72
2023-04-10T15:29:43.536Z,5.70
2023-04-10T15:32:12.465Z,5.13
2023-04-10T15:34:40.411Z,4.30
2023-04-10T15:37:08.388Z,5.35
2023-04-10T15:39:37.369Z,4.53
2023-04-10T15:42:07.568Z,5.45
2023-04-10T15:44:35.497Z,5.80
2023-04-10T15:47:03.766Z,5.57
2023-04-10T15:49:37.684Z,5.70
2023-04-10T15:52:06.810Z,6.15
2023-04-10T15:54:35.358Z,5.18
2023-04-10T15:57:04.038Z,5.30
2023-04-10T15:59:34.149Z,6.20
2023-04-10T16:02:02.382Z,6.35
2023-04-10T16:04:31.214Z,6.68
2023-04-10T16:06:59.365Z,5.15
2023-04-10T16:09:27.672Z,5.57
2023-04-10T16:11:56.343Z,5.50
2023-04-10T16:14:24.087Z,8.85
2023-04-10T16:16:51.823Z,10.02
2023-04-10T16:19:19.793Z,11.35
2023-04-10T16:21:47.689Z,12.18
2023-04-10T16:24:15.620Z,16.65
2023-04-10T16:26:44.302Z,13.80
2023-04-10T16:29:12.393Z,12.23
2023-04-10T16:31:40.465Z,9.73
2023-04-10T16:34:08.506Z,12.35
2023-04-10T16:36:36.521Z,8.35
2023-04-10T16:39:04.200Z,9.07
2023-04-10T16:41:33.384Z,6.15
2023-04-10T16:44:01.163Z,5.57
2023-04-10T16:46:28.905Z,8.40
2023-04-10T16:48:57.110Z,6.72
2023-04-10T16:51:25.797Z,6.75
2023-04-10T16:53:54.011Z,7.20
2023-04-10T16:56:21.794Z,7.10
2023-04-10T16:58:49.699Z,9.23
2023-04-10T17:01:20.047Z,8.77
2023-04-10T17:03:50.240Z,6.07
2023-04-10T17:06:18.617Z,10.45
2023-04-10T17:08:46.896Z,8.27
2023-04-10T17:11:14.888Z,5.72
2023-04-10T17:13:43.291Z,8.10
2023-04-10T17:16:12.573Z,10.05
2023-04-10T17:18:40.795Z,10.32
2023-04-10T17:21:13.126Z,9.90
2023-04-10T17:23:41.373Z,7.63
2023-04-10T17:26:14.248Z,13.27
2023-04-10T17:28:46.688Z,7.40
2023-04-10T17:31:14.981Z,7.72
2023-04-10T17:33:43.116Z,8.93
2023-04-10T17:36:13.646Z,7.43
2023-04-10T17:38:44.214Z,11.10
2023-04-10T17:41:15.924Z,10.23
2023-04-10T17:43:44.127Z,9.63
2023-04-10T17:46:15.903Z,11.75
2023-04-10T17:48:44.454Z,11.85
2023-04-10T17:51:13.791Z,8.43
2023-04-10T17:53:41.589Z,10.00
2023-04-10T17:56:19.471Z,9.70
2023-04-10T17:58:47.453Z,7.22
2023-04-10T18:01:27.668Z,7.22
2023-04-10T18:03:56.340Z,6.68
2023-04-10T18:06:26.620Z,8.35
2023-04-10T18:09:00.358Z,14.18
2023-04-10T18:11:28.825Z,14.75
2023-04-10T18:13:58.101Z,19.95
2023-04-10T18:16:26.255Z,14.57
2023-04-10T18:18:54.588Z,20.63
2023-04-10T18:21:22.469Z,11.18
2023-04-10T18:23:50.622Z,12.88
2023-04-10T18:26:21.116Z,10.07
2023-04-10T18:28:49.106Z,9.95
2023-04-10T18:31:19.228Z,9.02
2023-04-10T18:33:59.930Z,10.15
2023-04-10T18:36:34.669Z,8.63
2023-04-10T18:39:02.372Z,9.35
2023-04-10T18:41:30.423Z,8.45
2023-04-10T18:44:04.995Z,7.30
2023-04-10T18:46:35.277Z,10.30
2023-04-10T18:49:03.912Z,11.32
2023-04-10T18:51:34.898Z,7.63
2023-04-10T18:54:05.239Z,9.80
2023-04-10T18:56:35.814Z,8.15
2023-04-10T18:59:04.678Z,10.95
2023-04-10T19:01:32.629Z,15.07
2023-04-10T19:04:01.208Z,22.40
2023-04-10T19:06:30.434Z,35.03
2023-04-10T19:08:58.546Z,34.45
2023-04-10T19:11:26.359Z,31.95
2023-04-10T19:13:54.606Z,21.65
2023-04-10T19:16:22.874Z,17.88
2023-04-10T19:18:53.687Z,15.23
2023-04-10T19:21:21.618Z,15.68
2023-04-10T19:23:49.543Z,12.52
2023-04-10T19:26:20.213Z,12.55
2023-04-10T19:28:48.065Z,14.48
2023-04-10T19:31:16.863Z,11.48
2023-04-10T19:33:44.890Z,10.10
2023-04-10T19:36:12.975Z,12.40
2023-04-10T19:38:41.247Z,10.93
2023-04-10T19:41:16.054Z,11.02
2023-04-10T19:43:45.201Z,10.65
2023-04-10T19:46:20.255Z,13.98
2023-04-10T19:48:51.389Z,11.40
2023-04-10T19:51:20.728Z,14.57
2023-04-10T19:53:49.685Z,13.60
2023-04-10T19:56:17.694Z,11.60
2023-04-10T19:58:48.248Z,11.88
2023-04-10T20:01:16.525Z,10.52
2023-04-10T20:03:44.675Z,10.57
2023-04-10T20:06:12.732Z,10.63
2023-04-10T20:08:40.892Z,8.43
2023-04-10T20:11:10.172Z,7.68
2023-04-10T20:13:39.336Z,9.80
2023-04-10T20:16:07.950Z,8.65
2023-04-10T20:18:36.790Z,7.40
2023-04-10T20:21:05.043Z,9.50
2023-04-10T20:23:33.148Z,8.77
2023-04-10T20:26:01.136Z,9.90
2023-04-10T20:28:30.024Z,10.57
2023-04-10T20:30:58.313Z,9.98
2023-04-10T20:33:26.200Z,7.70
2023-04-10T20:35:54.109Z,8.27
2023-04-10T20:38:22.085Z,8.80
2023-04-10T20:40:52.438Z,9.35
2023-04-10T20:43:21.257Z,10.38
2023-04-10T20:45:49.031Z,10.80
2023-04-10T20:48:17.258Z,10.80
2023-04-10T20:50:49.536Z,10.05
2023-04-10T20:53:17.664Z,7.85
2023-04-10T20:55:45.422Z,8.90
2023-04-10T20:58:13.237Z,7.47
2023-04-10T21:00:41.387Z,9.63
2023-04-10T21:03:10.119Z,7.85
2023-04-10T21:05:41.860Z,6.88
2023-04-10T21:08:10.736Z,7.63
2023-04-10T21:10:44.375Z,9.38
2023-04-10T21:13:14.256Z,12.25
2023-04-10T21:15:42.888Z,9.90
2023-04-10T21:18:11.488Z,9.85
2023-04-10T21:20:39.398Z,11.45
2023-04-10T21:23:07.372Z,11.13
2023-04-10T21:25:36.448Z,9.80
2023-04-10T21:28:05.023Z,13.00
2023-04-10T21:30:32.821Z,11.20
2023-04-10T21:33:01.847Z,11.00
2023-04-10T21:35:29.970Z,11.85
2023-04-10T21:38:01.868Z,10.60
2023-04-10T21:40:34.361Z,8.35
2023-04-10T21:43:03.033Z,9.25
2023-04-10T21:45:31.892Z,11.23
2023-04-10T21:48:00.570Z,8.60
2023-04-10T21:50:28.622Z,10.35
2023-04-10T21:52:57.673Z,8.70
2023-04-10T21:55:25.438Z,7.95
2023-04-10T21:57:53.770Z,6.90
2023-04-10T22:00:23.039Z,7.40
2023-04-10T22:02:52.210Z,8.70
2023-04-10T22:05:20.693Z,8.18
2023-04-10T22:07:48.588Z,9.65
2023-04-10T22:10:17.201Z,8.20
2023-04-10T22:12:48.179Z,9.68
2023-04-10T22:15:17.263Z,9.00
2023-04-10T22:17:45.064Z,7.30
2023-04-10T22:20:13.194Z,8.52
2023-04-10T22:22:40.964Z,8.23
2023-04-10T22:25:09.480Z,8.48
2023-04-10T22:27:37.352Z,8.38
2023-04-10T22:30:07.285Z,7.50
2023-04-10T22:32:35.594Z,10.75
2023-04-10T22:35:03.635Z,21.80
2023-04-10T22:37:31.270Z,15.60
2023-04-10T22:40:00.679Z,14.55
2023-04-10T22:42:30.528Z,13.55
2023-04-10T22:44:59.728Z,12.00
2023-04-10T22:47:27.744Z,11.18
2023-04-10T22:49:55.559Z,11.48
2023-04-10T22:52:24.180Z,9.18
2023-04-10T22:54:52.200Z,9.25
2023-04-10T22:57:19.951Z,8.02
2023-04-10T22:59:47.769Z,6.53
2023-04-10T23:02:16.243Z,7.85
2023-04-10T23:04:44.295Z,6.50
2023-04-10T23:07:12.086Z,7.07
2023-04-10T23:09:40.052Z,7.20
2023-04-10T23:12:08.077Z,6.93
2023-04-10T23:14:37.429Z,6.35
2023-04-10T23:17:05.167Z,6.05
2023-04-10T23:19:33.111Z,6.28
2023-04-10T23:22:00.783Z,7.10
2023-04-10T23:24:28.568Z,7.45
2023-04-10T23:26:56.438Z,7.10
2023-04-10T23:29:24.395Z,6.25
2023-04-10T23:31:52.252Z,6.57
2023-04-10T23:34:21.214Z,6.78
2023-04-10T23:36:49.008Z,6.53
2023-04-10T23:39:16.835Z,6.25
2023-04-10T23:41:44.687Z,6.25
2023-04-10T23:44:12.573Z,5.20
2023-04-10T23:46:40.707Z,6.63
2023-04-10T23:49:08.801Z,6.97
2023-04-10T23:51:36.720Z,5.65
2023-04-10T23:54:06.140Z,5.65
2023-04-10T23:56:34.608Z,6.40
2023-04-10T23:59:02.295Z,5.80
